Time;durP1;ratioP1;P1;durP2;ratioP2;P2;SDS_P1;SDS_P2;PMS_P1;PMS_P2;Temp;Humidity;BMP_temperature;BMP_pressure;BME280_temperature;BME280_humidity;BME280_pressure;Samples;Min_cycle;Max_cycle;Signal;HPM_P1;HPM_P2
2021/01/14 00:01:43;;;;;;;3.00;1.73;;;2.20;99.90;;;;;;4986345;28;20171;-82
2021/01/14 00:04:12;;;;;;;1.17;1.02;;;2.10;99.90;;;;;;4988024;28;20175;-82
2021/01/14 00:06:37;;;;;;;1.40;1.17;;;2.30;99.90;;;;;;4989252;28;20207;-83
2021/01/14 00:09:06;;;;;;;1.63;1.33;;;2.40;99.90;;;;;;4988134;28;20258;-83
2021/01/14 00:11:32;;;;;;;1.67;1.33;;;2.30;99.90;;;;;;4986918;28;20188;-82
2021/01/14 00:13:58;;;;;;;1.77;1.30;;;2.20;99.90;;;;;;4988733;28;20234;-81
2021/01/14 00:16:26;;;;;;;3.20;1.50;;;2.20;99.90;;;;;;4972259;28;20219;-83
2021/01/14 00:18:51;;;;;;;1.77;1.50;;;2.20;99.90;;;;;;4992044;28;20175;-82
2021/01/14 00:21:20;;;;;;;2.53;1.90;;;2.20;99.90;;;;;;4988107;28;20394;-82
2021/01/14 00:23:45;;;;;;;1.95;1.60;;;2.20;99.90;;;;;;4990273;28;20176;-82
2021/01/14 00:26:12;;;;;;;3.30;1.97;;;2.40;99.90;;;;;;4988794;28;20219;-83
2021/01/14 00:28:38;;;;;;;1.42;1.33;;;2.50;99.90;;;;;;4986953;28;20183;-83
2021/01/14 00:31:04;;;;;;;2.60;1.23;;;2.50;99.90;;;;;;4970700;28;20247;-83
2021/01/14 00:33:30;;;;;;;1.77;1.67;;;2.10;99.90;;;;;;4986166;28;20191;-82
2021/01/14 00:35:58;;;;;;;1.90;1.20;;;1.90;99.90;;;;;;4954105;28;20450;-81
2021/01/14 00:38:23;;;;;;;1.52;1.25;;;2.00;99.90;;;;;;4966395;28;20179;-82
2021/01/14 00:40:49;;;;;;;2.70;1.67;;;2.00;99.90;;;;;;4964648;28;20530;-83
2021/01/14 00:43:15;;;;;;;1.30;1.20;;;2.10;99.90;;;;;;4964384;28;20274;-83
2021/01/14 00:45:41;;;;;;;1.55;1.42;;;2.40;99.90;;;;;;4965604;28;20219;-83
2021/01/14 00:48:07;;;;;;;2.77;1.57;;;2.40;99.90;;;;;;4965642;28;20179;-83
2021/01/14 00:50:33;;;;;;;2.05;1.85;;;2.60;99.90;;;;;;4964357;28;20184;-82
2021/01/14 00:52:59;;;;;;;6.57;1.77;;;2.60;99.90;;;;;;4952279;28;20179;-83
2021/01/14 00:55:24;;;;;;;2.47;1.67;;;2.40;99.90;;;;;;4982487;28;20198;-81
2021/01/14 00:57:50;;;;;;;2.70;1.80;;;2.20;99.90;;;;;;5000421;28;20163;-82
2021/01/14 01:00:21;;;;;;;2.80;1.57;;;2.20;99.90;;;;;;4993279;28;20442;-83
2021/01/14 01:02:54;;;;;;;1.83;1.60;;;2.20;99.90;;;;;;4970185;28;20434;-83
2021/01/14 01:05:20;;;;;;;2.22;1.60;;;2.30;99.90;;;;;;4987348;28;20210;-82
2021/01/14 01:08:02;;;;;;;1.92;1.70;;;2.50;99.90;;;;;;4985276;28;20520;-82
2021/01/14 01:10:27;;;;;;;2.35;1.77;;;2.30;99.90;;;;;;4986199;28;20551;-82
2021/01/14 01:12:55;;;;;;;1.10;0.97;;;2.20;99.90;;;;;;4970808;28;20172;-83
2021/01/14 01:15:21;;;;;;;1.45;1.20;;;2.30;99.90;;;;;;4988596;28;20214;-83
2021/01/14 01:17:46;;;;;;;2.90;1.60;;;2.30;99.90;;;;;;4987448;28;20175;-83
2021/01/14 01:20:12;;;;;;;1.63;1.50;;;2.40;99.90;;;;;;4981042;28;20482;-82
2021/01/14 01:22:38;;;;;;;1.50;1.25;;;2.40;99.90;;;;;;4967393;28;20180;-82
2021/01/14 01:25:04;;;;;;;2.13;1.40;;;2.60;99.90;;;;;;4979202;28;20210;-81
2021/01/14 01:27:30;;;;;;;2.13;1.52;;;2.70;99.90;;;;;;4978049;28;20230;-82
2021/01/14 01:29:56;;;;;;;1.40;1.30;;;2.70;99.90;;;;;;4961863;28;20176;-83
2021/01/14 01:32:21;;;;;;;2.03;1.67;;;2.70;99.90;;;;;;4977767;28;20175;-82
2021/01/14 01:34:47;;;;;;;2.90;1.30;;;2.70;99.90;;;;;;4977947;28;20438;-82
2021/01/14 01:37:16;;;;;;;1.83;1.73;;;2.60;99.90;;;;;;4978223;28;20644;-82
2021/01/14 01:39:42;;;;;;;1.50;1.27;;;2.50;99.90;;;;;;4945500;28;20179;-82
2021/01/14 01:42:08;;;;;;;1.48;1.15;;;2.50;99.90;;;;;;4961044;28;20547;-82
2021/01/14 01:44:34;;;;;;;1.13;0.80;;;2.40;99.90;;;;;;4961333;28;20211;-82
2021/01/14 01:47:08;;;;;;;2.10;1.27;;;2.00;99.90;;;;;;4977331;28;20178;-82
2021/01/14 01:49:35;;;;;;;3.55;2.15;;;1.90;99.90;;;;;;4976727;28;20176;-82
2021/01/14 01:52:05;;;;;;;2.28;1.60;;;2.00;99.90;;;;;;4960026;28;20214;-82
2021/01/14 01:54:35;;;;;;;1.25;1.15;;;1.90;99.90;;;;;;4961187;28;20230;-82
2021/01/14 01:57:03;;;;;;;1.50;1.40;;;1.60;99.90;;;;;;4979047;28;20183;-82
2021/01/14 01:59:38;;;;;;;1.02;0.93;;;1.60;99.90;;;;;;4976491;28;20178;-82
2021/01/14 02:02:21;;;;;;;1.25;1.02;;;1.40;99.90;;;;;;4960423;28;20179;-82
2021/01/14 02:04:49;;;;;;;1.17;1.02;;;1.40;99.90;;;;;;4978444;28;20210;-81
2021/01/14 02:07:41;;;;;;;1.38;0.80;;;1.40;99.90;;;;;;4977011;28;20635;-82
2021/01/14 02:10:18;;;;;;;0.80;0.70;;;1.40;99.90;;;;;;4977353;28;20179;-82
2021/01/14 02:13:18;;;;;;;1.60;1.40;;;1.40;99.90;;;;;;4962782;28;20203;-81
2021/01/14 02:15:47;;;;;;;1.67;0.98;;;1.40;99.90;;;;;;4976695;28;20226;-82
2021/01/14 02:18:20;;;;;;;1.67;1.00;;;1.40;99.90;;;;;;4961046;28;20184;-82
2021/01/14 02:20:55;;;;;;;0.77;0.63;;;1.40;99.90;;;;;;4978849;28;20183;-83
2021/01/14 02:23:25;;;;;;;0.95;0.70;;;1.30;99.90;;;;;;4977960;28;20198;-83
2021/01/14 02:26:15;;;;;;;1.25;1.13;;;1.30;99.90;;;;;;4981752;28;20203;-82
2021/01/14 02:28:44;;;;;;;0.93;0.85;;;1.20;99.90;;;;;;4978538;28;20190;-82
2021/01/14 02:31:11;;;;;;;1.00;0.90;;;1.20;99.90;;;;;;4977855;28;20171;-83
2021/01/14 02:33:37;;;;;;;1.02;0.73;;;1.30;99.90;;;;;;4977630;28;20391;-83
2021/01/14 02:36:04;;;;;;;1.20;0.80;;;1.30;99.90;;;;;;4978477;28;20206;-83
2021/01/14 02:38:29;;;;;;;1.45;1.08;;;1.30;99.90;;;;;;4984465;28;20195;-83
2021/01/14 02:41:08;;;;;;;1.30;1.10;;;1.30;99.90;;;;;;4961726;28;20234;-83
2021/01/14 02:43:35;;;;;;;1.50;1.35;;;1.30;99.90;;;;;;4964483;28;20247;-83
2021/01/14 02:46:05;;;;;;;1.80;1.10;;;1.20;99.90;;;;;;4980289;28;20203;-82
2021/01/14 02:49:00;;;;;;;1.67;1.58;;;1.30;99.90;;;;;;4981156;28;20175;-83
2021/01/14 02:51:34;;;;;;;1.02;0.80;;;1.30;99.90;;;;;;4978690;28;20175;-81
2021/01/14 02:54:05;;;;;;;0.90;0.80;;;1.30;99.90;;;;;;4982773;28;20174;-82
2021/01/14 02:56:33;;;;;;;1.08;0.98;;;1.20;99.90;;;;;;4979113;28;20187;-81
2021/01/14 02:59:06;;;;;;;1.65;1.20;;;1.20;99.90;;;;;;4963057;28;20183;-81
2021/01/14 03:01:32;;;;;;;1.35;1.10;;;1.20;99.90;;;;;;4983084;28;20222;-81
2021/01/14 03:03:59;;;;;;;1.70;1.60;;;1.20;99.90;;;;;;4979738;28;20175;-82
2021/01/14 03:06:24;;;;;;;1.80;1.20;;;1.20;99.90;;;;;;4983027;28;20659;-81
2021/01/14 03:08:50;;;;;;;1.20;1.10;;;1.20;99.90;;;;;;4964513;28;20838;-82
2021/01/14 03:11:16;;;;;;;4.70;1.30;;;1.20;99.90;;;;;;4981369;28;20532;-81
2021/01/14 03:13:45;;;;;;;2.60;1.40;;;1.30;99.90;;;;;;4961061;28;20183;-82
2021/01/14 03:16:10;;;;;;;1.55;1.30;;;1.20;99.90;;;;;;4977567;28;20677;-81
2021/01/14 03:18:36;;;;;;;1.73;1.63;;;1.20;99.90;;;;;;4978935;28;20204;-82
2021/01/14 03:21:01;;;;;;;2.00;1.37;;;1.20;99.90;;;;;;4981193;28;20193;-81
2021/01/14 03:23:30;;;;;;;3.37;1.50;;;1.20;99.90;;;;;;4965097;28;20182;-81
2021/01/14 03:25:56;;;;;;;2.95;1.98;;;1.20;99.90;;;;;;4951311;28;20207;-81
2021/01/14 03:28:21;;;;;;;2.20;1.20;;;1.20;99.90;;;;;;4983374;28;20243;-81
2021/01/14 03:30:47;;;;;;;1.90;1.80;;;1.20;99.90;;;;;;4968498;28;20183;-82
2021/01/14 03:33:13;;;;;;;2.37;1.53;;;1.20;99.90;;;;;;4948551;28;20184;-81
2021/01/14 03:35:38;;;;;;;2.63;2.00;;;1.20;99.90;;;;;;4981604;28;20230;-81
2021/01/14 03:38:04;;;;;;;3.10;1.90;;;1.20;99.90;;;;;;4979689;28;20255;-80
2021/01/14 03:40:30;;;;;;;3.43;1.93;;;1.20;99.90;;;;;;4980075;28;20218;-80
2021/01/14 03:42:55;;;;;;;2.00;1.80;;;1.20;99.90;;;;;;4979816;28;20194;-81
2021/01/14 03:45:24;;;;;;;2.17;1.70;;;1.20;99.90;;;;;;4980859;28;20579;-82
2021/01/14 03:47:49;;;;;;;2.72;1.80;;;1.20;99.90;;;;;;4980909;28;20195;-81
2021/01/14 03:50:15;;;;;;;3.40;2.53;;;1.20;99.90;;;;;;4980560;28;20172;-80
2021/01/14 03:52:40;;;;;;;4.13;2.40;;;1.30;99.90;;;;;;4980631;28;20180;-80
2021/01/14 03:55:06;;;;;;;2.07;1.87;;;1.30;99.90;;;;;;4981243;28;20207;-81
2021/01/14 03:57:36;;;;;;;1.70;1.40;;;1.30;99.90;;;;;;4980836;28;20559;-81
2021/01/14 04:00:05;;;;;;;3.08;1.80;;;1.30;99.90;;;;;;4981090;28;20415;-81
2021/01/14 04:02:33;;;;;;;3.80;1.80;;;1.30;99.90;;;;;;4982024;28;20524;-82
2021/01/14 04:04:59;;;;;;;4.85;1.60;;;1.30;99.90;;;;;;4979352;28;20292;-81
2021/01/14 04:07:25;;;;;;;3.50;2.57;;;1.30;99.90;;;;;;4980003;28;20436;-82
2021/01/14 04:09:50;;;;;;;3.60;2.13;;;1.30;99.90;;;;;;4980683;28;20202;-81
2021/01/14 04:12:16;;;;;;;2.00;1.63;;;1.30;99.90;;;;;;4963133;28;20187;-81
2021/01/14 04:14:50;;;;;;;2.50;1.93;;;1.40;99.90;;;;;;4963490;28;20215;-81
2021/01/14 04:17:16;;;;;;;4.18;1.85;;;1.40;99.90;;;;;;4964298;28;20172;-80
2021/01/14 04:19:42;;;;;;;3.53;1.60;;;1.40;99.90;;;;;;4980434;28;20175;-81
2021/01/14 04:22:07;;;;;;;4.60;2.90;;;1.40;99.90;;;;;;4978502;28;20516;-81
2021/01/14 04:24:36;;;;;;;3.20;1.70;;;1.40;99.90;;;;;;4979455;28;20207;-81
2021/01/14 04:27:04;;;;;;;6.40;3.55;;;1.40;99.90;;;;;;4981332;28;20248;-81
2021/01/14 04:29:29;;;;;;;3.90;2.75;;;1.40;99.90;;;;;;4979608;28;20182;-80
2021/01/14 04:31:55;;;;;;;3.17;2.70;;;1.50;99.90;;;;;;4979187;28;20250;-81
2021/01/14 04:34:21;;;;;;;3.70;3.00;;;1.50;99.90;;;;;;4950127;28;20674;-82
2021/01/14 04:36:46;;;;;;;6.63;2.67;;;1.50;99.90;;;;;;4987832;28;20244;-81
2021/01/14 04:39:12;;;;;;;5.27;3.13;;;1.50;99.90;;;;;;4998414;28;20168;-81
2021/01/14 04:41:50;;;;;;;5.20;3.60;;;1.50;99.90;;;;;;4963693;28;20190;-81
2021/01/14 04:44:16;;;;;;;4.65;2.90;;;1.50;99.90;;;;;;4979165;28;20187;-81
2021/01/14 04:46:48;;;;;;;4.50;3.05;;;1.60;99.90;;;;;;4963874;28;20303;-81
2021/01/14 04:49:16;;;;;;;3.53;2.88;;;1.60;99.90;;;;;;4979844;28;20182;-82
2021/01/14 04:51:44;;;;;;;3.50;2.25;;;1.50;99.90;;;;;;4962982;28;20187;-81
2021/01/14 04:54:14;;;;;;;4.47;3.00;;;1.50;99.90;;;;;;4979688;28;20188;-81
2021/01/14 04:56:40;;;;;;;4.13;2.78;;;1.50;99.90;;;;;;4979591;28;20184;-81
2021/01/14 04:59:06;;;;;;;3.72;2.85;;;1.50;99.90;;;;;;4963437;28;20554;-82
2021/01/14 05:01:41;;;;;;;3.15;2.85;;;1.50;99.90;;;;;;4978259;28;20262;-79
2021/01/14 05:04:09;;;;;;;5.50;2.88;;;1.50;99.90;;;;;;4978511;28;20163;-80
2021/01/14 05:06:38;;;;;;;4.85;3.80;;;1.50;99.90;;;;;;4978708;28;20287;-80
2021/01/14 05:09:06;;;;;;;5.18;3.75;;;1.50;99.90;;;;;;4979141;28;20545;-80
2021/01/14 05:11:58;;;;;;;5.15;3.28;;;1.50;99.90;;;;;;4978639;28;20207;-80
2021/01/14 05:14:24;;;;;;;8.00;4.43;;;1.50;99.90;;;;;;4976553;28;20207;-81
2021/01/14 05:16:51;;;;;;;9.40;4.65;;;1.50;99.90;;;;;;4979386;28;20203;-81
2021/01/14 05:19:17;;;;;;;7.43;5.80;;;1.60;99.90;;;;;;4962089;28;20246;-80
2021/01/14 05:21:45;;;;;;;10.48;4.72;;;1.60;99.90;;;;;;4962330;28;20184;-80
2021/01/14 05:24:15;;;;;;;8.55;3.80;;;1.60;99.90;;;;;;4978425;28;20266;-81
2021/01/14 05:26:42;;;;;;;6.47;4.00;;;1.60;99.90;;;;;;4978017;28;20281;-81
2021/01/14 05:29:12;;;;;;;7.82;3.97;;;1.60;99.90;;;;;;4979235;28;20183;-81
2021/01/14 05:31:37;;;;;;;7.93;3.75;;;1.60;99.90;;;;;;4979697;28;20171;-82
2021/01/14 05:34:06;;;;;;;9.83;4.20;;;1.60;99.90;;;;;;4980759;28;20175;-80
2021/01/14 05:37:04;;;;;;;7.65;5.07;;;1.60;99.90;;;;;;4979872;28;20543;-81
2021/01/14 05:39:30;;;;;;;8.35;4.10;;;1.60;99.90;;;;;;4966866;28;20191;-80
2021/01/14 05:42:08;;;;;;;10.20;5.57;;;1.70;99.90;;;;;;4978292;28;20177;-80
2021/01/14 05:44:38;;;;;;;6.47;5.43;;;1.60;99.90;;;;;;4964448;28;20203;-80
2021/01/14 05:47:27;;;;;;;11.38;5.20;;;1.70;99.90;;;;;;4961566;28;20701;-80
2021/01/14 05:49:57;;;;;;;10.07;4.88;;;1.70;99.90;;;;;;4979507;28;20202;-81
2021/01/14 05:52:24;;;;;;;10.50;6.20;;;1.60;99.90;;;;;;4977665;28;20168;-82
2021/01/14 05:55:26;;;;;;;13.38;5.75;;;1.70;99.90;;;;;;4976373;28;20690;-81
2021/01/14 05:58:01;;;;;;;14.52;7.30;;;1.70;99.90;;;;;;4963552;28;20210;-81
2021/01/14 06:00:33;;;;;;;9.88;5.80;;;1.70;99.90;;;;;;4976451;28;20181;-80
2021/01/14 06:03:02;;;;;;;7.13;5.15;;;1.70;99.90;;;;;;4975489;28;20171;-80
2021/01/14 06:05:32;;;;;;;11.15;6.45;;;1.70;99.90;;;;;;4985935;28;20207;-80
2021/01/14 06:08:01;;;;;;;12.25;6.93;;;1.70;99.90;;;;;;4963963;28;20191;-80
2021/01/14 06:10:34;;;;;;;9.65;6.15;;;1.70;99.90;;;;;;4978514;28;20171;-81
2021/01/14 06:13:02;;;;;;;10.73;5.90;;;1.70;99.90;;;;;;4978577;28;20175;-82
2021/01/14 06:15:28;;;;;;;8.18;4.15;;;1.70;99.90;;;;;;4979599;28;20303;-81
2021/01/14 06:18:00;;;;;;;9.00;4.63;;;1.70;99.90;;;;;;4980668;28;20635;-81
2021/01/14 06:20:27;;;;;;;8.90;5.47;;;1.70;99.90;;;;;;4964386;28;20191;-80
2021/01/14 06:22:59;;;;;;;5.45;3.88;;;1.70;99.90;;;;;;4980176;28;20179;-81
2021/01/14 06:25:26;;;;;;;7.82;4.90;;;1.70;99.90;;;;;;4979512;28;20276;-81
2021/01/14 06:27:59;;;;;;;14.15;6.00;;;1.70;99.90;;;;;;4963750;28;20194;-81
2021/01/14 06:30:25;;;;;;;8.82;3.92;;;1.70;99.90;;;;;;4977851;28;20207;-81
2021/01/14 06:33:03;;;;;;;9.50;4.47;;;1.70;99.90;;;;;;4978128;28;20183;-81
2021/01/14 06:35:29;;;;;;;7.25;5.18;;;1.70;99.90;;;;;;4978435;28;20282;-81
2021/01/14 06:37:58;;;;;;;7.90;5.20;;;1.70;99.90;;;;;;4963375;28;20215;-81
2021/01/14 06:40:29;;;;;;;7.38;4.50;;;1.70;99.90;;;;;;5001083;28;20187;-81
2021/01/14 06:42:58;;;;;;;12.77;6.45;;;1.70;99.90;;;;;;4980192;28;20231;-82
2021/01/14 06:45:31;;;;;;;10.82;6.10;;;1.60;99.90;;;;;;4975894;28;20210;-81
2021/01/14 06:48:03;;;;;;;9.65;5.78;;;1.60;99.90;;;;;;4977676;28;20666;-80
2021/01/14 06:50:31;;;;;;;8.52;4.28;;;1.70;99.90;;;;;;4976320;28;20191;-81
2021/01/14 06:53:00;;;;;;;9.07;4.43;;;1.70;99.90;;;;;;4975919;28;20233;-81
2021/01/14 06:55:31;;;;;;;9.32;4.85;;;1.70;99.90;;;;;;4977933;28;20203;-82
2021/01/14 06:58:03;;;;;;;9.20;5.90;;;1.70;99.90;;;;;;4977730;28;20179;-81
2021/01/14 07:00:29;;;;;;;9.23;4.70;;;1.70;99.90;;;;;;4977311;28;20266;-82
2021/01/14 07:03:16;;;;;;;7.63;5.20;;;1.70;99.90;;;;;;4978419;28;20182;-82
2021/01/14 07:05:58;;;;;;;13.70;5.63;;;1.70;99.90;;;;;;4976586;28;20248;-82
2021/01/14 07:09:04;;;;;;;8.25;5.15;;;1.70;99.90;;;;;;4980796;28;20167;-81
2021/01/14 07:11:39;;;;;;;8.45;5.30;;;1.80;99.90;;;;;;4982181;28;20179;-81
2021/01/14 07:14:14;;;;;;;11.50;5.38;;;1.70;99.90;;;;;;4982508;28;20171;-80
2021/01/14 07:16:42;;;;;;;7.32;4.95;;;1.70;99.90;;;;;;4979981;28;20190;-80
2021/01/14 07:19:09;;;;;;;8.48;4.40;;;1.70;99.90;;;;;;4978891;28;20537;-80
2021/01/14 07:21:43;;;;;;;12.73;5.25;;;1.70;99.90;;;;;;4979507;28;20183;-81
2021/01/14 07:24:18;;;;;;;8.00;4.80;;;1.80;99.90;;;;;;4978418;28;20268;-81
2021/01/14 07:26:46;;;;;;;9.45;4.50;;;1.70;99.90;;;;;;4979831;28;20217;-82
2021/01/14 07:29:14;;;;;;;6.90;4.85;;;1.70;99.90;;;;;;4981461;28;20596;-80
2021/01/14 07:31:58;;;;;;;5.30;3.38;;;1.60;99.90;;;;;;4978304;28;20195;-79
2021/01/14 07:34:44;;;;;;;8.82;3.88;;;1.70;99.90;;;;;;4977922;28;20294;-79
2021/01/14 07:37:14;;;;;;;6.72;3.90;;;1.60;99.90;;;;;;4977338;28;20186;-79
2021/01/14 07:39:46;;;;;;;5.78;3.92;;;1.60;99.90;;;;;;4976618;28;20184;-80
2021/01/14 07:42:27;;;;;;;6.28;4.47;;;1.80;99.90;;;;;;4977625;28;20250;-81
2021/01/14 07:45:01;;;;;;;8.13;4.45;;;2.50;99.90;;;;;;4978462;28;20207;-80
2021/01/14 07:47:26;;;;;;;6.03;4.22;;;2.70;99.90;;;;;;4974533;28;20185;-81
2021/01/14 07:49:52;;;;;;;14.27;5.80;;;2.60;99.90;;;;;;4978523;28;20188;-81
2021/01/14 07:52:35;;;;;;;6.00;5.40;;;2.60;99.90;;;;;;4977795;28;20175;-81
2021/01/14 07:55:09;;;;;;;11.45;4.68;;;2.40;99.90;;;;;;4984808;28;20199;-81
2021/01/14 07:58:13;;;;;;;6.65;4.45;;;2.60;99.90;;;;;;4981949;28;20287;-81
2021/01/14 08:00:42;;;;;;;7.53;4.35;;;2.70;99.90;;;;;;4976903;28;20183;-81
2021/01/14 08:03:12;;;;;;;4.05;3.05;;;2.50;99.90;;;;;;4980916;28;20180;-82
2021/01/14 08:05:56;;;;;;;7.07;3.15;;;2.20;99.90;;;;;;4982752;28;20213;-80
2021/01/14 08:08:36;;;;;;;6.03;4.25;;;2.00;99.90;;;;;;4981558;28;20521;-81
2021/01/14 08:11:17;;;;;;;5.57;3.90;;;2.00;99.90;;;;;;4992707;28;20194;-80
2021/01/14 08:14:07;;;;;;;6.45;4.53;;;2.00;99.90;;;;;;4984973;28;20198;-80
2021/01/14 08:16:35;;;;;;;5.40;3.05;;;2.00;99.90;;;;;;4970580;28;20263;-79
2021/01/14 08:19:26;;;;;;;8.38;4.45;;;2.10;99.90;;;;;;4983085;28;20207;-80
2021/01/14 08:21:58;;;;;;;8.07;3.75;;;2.20;99.90;;;;;;4972391;29;20695;-79
2021/01/14 08:24:53;;;;;;;6.25;4.25;;;2.30;99.90;;;;;;4977398;28;20175;-79
2021/01/14 08:27:34;;;;;;;6.72;4.20;;;2.30;99.90;;;;;;4984403;28;20658;-80
2021/01/14 08:30:06;;;;;;;12.07;4.43;;;2.50;99.90;;;;;;4984865;28;20179;-79
2021/01/14 08:32:39;;;;;;;6.13;3.20;;;2.50;99.90;;;;;;4981326;28;20635;-78
2021/01/14 08:35:15;;;;;;;5.70;3.33;;;2.50;99.90;;;;;;4982797;28;20287;-80
2021/01/14 08:37:53;;;;;;;6.15;2.88;;;2.50;99.90;;;;;;4982876;28;20175;-80
2021/01/14 08:40:26;;;;;;;3.95;3.28;;;2.70;99.90;;;;;;4981469;28;20184;-82
2021/01/14 08:43:07;;;;;;;4.20;3.05;;;2.50;99.90;;;;;;4980671;28;20176;-77
2021/01/14 08:45:34;;;;;;;5.90;4.10;;;2.50;99.90;;;;;;4978876;28;20199;-76
2021/01/14 08:48:05;;;;;;;5.18;2.67;;;2.50;99.90;;;;;;4979401;28;20174;-80
2021/01/14 08:50:58;;;;;;;2.80;2.55;;;2.40;99.90;;;;;;4963046;28;20202;-80
2021/01/14 08:53:39;;;;;;;3.92;2.58;;;2.40;99.90;;;;;;4962319;28;20226;-81
2021/01/14 08:56:07;;;;;;;3.33;2.63;;;2.30;99.90;;;;;;4980316;28;20196;-81
2021/01/14 08:58:33;;;;;;;5.38;2.38;;;2.30;99.90;;;;;;4980322;28;20183;-80
2021/01/14 09:00:59;;;;;;;4.00;2.50;;;2.40;99.90;;;;;;4983878;28;20186;-80
2021/01/14 09:03:28;;;;;;;4.57;2.47;;;2.40;99.90;;;;;;4993060;28;20179;-80
2021/01/14 09:06:06;;;;;;;3.88;2.63;;;2.50;99.90;;;;;;5006861;28;20213;-81
2021/01/14 09:08:32;;;;;;;5.78;3.00;;;2.50;99.90;;;;;;5006323;28;20175;-80
2021/01/14 09:11:01;;;;;;;4.73;3.37;;;2.60;99.90;;;;;;5005336;28;20170;-81
2021/01/14 09:13:39;;;;;;;8.93;2.78;;;2.50;99.90;;;;;;4989469;28;20910;-82
2021/01/14 09:16:10;;;;;;;2.45;2.25;;;2.60;99.90;;;;;;4987417;28;20221;-80
2021/01/14 09:18:40;;;;;;;3.83;2.70;;;2.60;99.90;;;;;;4999693;28;20488;-80
2021/01/14 09:21:07;;;;;;;3.78;2.45;;;2.60;99.90;;;;;;4971908;28;20278;-81
2021/01/14 09:23:40;;;;;;;4.38;2.72;;;2.60;99.90;;;;;;4963350;28;20190;-81
2021/01/14 09:26:12;;;;;;;4.65;2.45;;;2.60;99.90;;;;;;4979735;28;20302;-80
2021/01/14 09:28:40;;;;;;;3.20;2.33;;;2.50;99.90;;;;;;4980663;28;20176;-80
2021/01/14 09:31:10;;;;;;;2.35;2.15;;;2.40;99.90;;;;;;4981954;28;20175;-80
2021/01/14 09:33:42;;;;;;;3.38;2.40;;;2.50;99.90;;;;;;4978349;28;20175;-80
2021/01/14 09:36:26;;;;;;;2.78;1.90;;;2.50;99.90;;;;;;4980052;28;20211;-80
2021/01/14 09:38:53;;;;;;;2.60;1.98;;;2.50;99.90;;;;;;4979169;28;20183;-80
2021/01/14 09:41:34;;;;;;;3.63;2.13;;;2.50;99.90;;;;;;5010620;28;20751;-81
2021/01/14 09:44:01;;;;;;;1.60;1.50;;;2.50;99.90;;;;;;5010306;28;20177;-81
2021/01/14 09:46:29;;;;;;;4.68;2.33;;;2.50;99.90;;;;;;4981254;28;20215;-79
2021/01/14 09:49:04;;;;;;;2.58;2.38;;;2.50;99.90;;;;;;4981300;28;20191;-81
2021/01/14 09:51:30;;;;;;;4.40;2.40;;;2.50;99.90;;;;;;5011501;28;20197;-80
2021/01/14 09:53:56;;;;;;;3.15;2.28;;;2.50;99.90;;;;;;5015540;28;20247;-80
2021/01/14 09:56:53;;;;;;;2.85;2.05;;;2.50;99.90;;;;;;4998735;28;20195;-79
2021/01/14 09:59:42;;;;;;;2.70;2.00;;;2.60;99.90;;;;;;4968435;28;20187;-80
2021/01/14 10:02:20;;;;;;;3.92;2.00;;;2.50;99.90;;;;;;4978628;28;20191;-79
2021/01/14 10:04:57;;;;;;;4.40;3.20;;;2.70;99.90;;;;;;4983850;28;20608;-79
2021/01/14 10:07:25;;;;;;;4.82;3.20;;;2.60;99.90;;;;;;4978258;28;20243;-80
2021/01/14 10:09:52;;;;;;;4.75;2.83;;;2.60;99.90;;;;;;4976839;28;20197;-79
2021/01/14 10:12:18;;;;;;;3.95;2.65;;;2.60;99.90;;;;;;4979743;28;20206;-79
2021/01/14 10:14:44;;;;;;;5.07;3.85;;;2.50;99.90;;;;;;4980978;28;20203;-79
2021/01/14 10:17:16;;;;;;;8.17;3.30;;;2.60;99.90;;;;;;4966134;28;20187;-79
2021/01/14 10:19:48;;;;;;;4.95;3.25;;;2.60;99.90;;;;;;4977717;28;21089;-80
2021/01/14 10:22:14;;;;;;;6.20;3.58;;;2.60;99.90;;;;;;4979244;28;20183;-79
2021/01/14 10:24:40;;;;;;;3.70;2.40;;;2.60;99.90;;;;;;4995674;23;20218;-81
2021/01/14 10:27:17;;;;;;;7.80;2.77;;;2.70;99.90;;;;;;4985309;28;20217;-80
2021/01/14 10:29:43;;;;;;;7.20;3.97;;;2.80;99.90;;;;;;4985656;28;20218;-80
2021/01/14 10:32:11;;;;;;;6.03;3.97;;;2.90;99.90;;;;;;4972622;28;20202;-80
2021/01/14 10:34:46;;;;;;;5.50;3.40;;;3.00;99.90;;;;;;4970672;28;20195;-80
2021/01/14 10:37:23;;;;;;;5.75;3.05;;;3.00;99.90;;;;;;4985886;28;20172;-81
2021/01/14 10:39:50;;;;;;;5.90;3.90;;;2.90;99.90;;;;;;4999605;28;20257;-80
2021/01/14 10:42:39;;;;;;;11.77;4.13;;;2.90;99.90;;;;;;4982131;28;20230;-81
2021/01/14 10:45:10;;;;;;;7.20;4.05;;;2.90;99.90;;;;;;5005478;28;20244;-80
2021/01/14 10:47:39;;;;;;;6.22;4.30;;;2.90;99.90;;;;;;4972840;28;20214;-80
2021/01/14 10:50:25;;;;;;;8.70;4.60;;;2.90;99.90;;;;;;4972229;28;20259;-81
2021/01/14 10:53:05;;;;;;;31.25;4.70;;;2.90;99.90;;;;;;4989875;28;20171;-81
2021/01/14 10:55:32;;;;;;;10.13;4.35;;;2.70;99.90;;;;;;4990135;28;20198;-80
2021/01/14 10:58:02;;;;;;;7.07;4.32;;;2.80;99.90;;;;;;4975583;28;20186;-82
2021/01/14 11:00:49;;;;;;;9.00;4.10;;;2.70;99.90;;;;;;4972362;28;20182;-80
2021/01/14 11:03:21;;;;;;;5.93;4.50;;;2.70;99.90;;;;;;4976646;28;20566;-80
2021/01/14 11:05:52;;;;;;;10.52;4.63;;;2.60;99.90;;;;;;4989155;28;20379;-80
2021/01/14 11:08:25;;;;;;;5.55;4.22;;;2.70;99.90;;;;;;5013417;28;20226;-79
2021/01/14 11:11:07;;;;;;;9.43;4.90;;;2.70;99.90;;;;;;4983600;28;20209;-78
2021/01/14 11:13:51;;;;;;;9.68;4.50;;;2.70;99.90;;;;;;5007293;28;20163;-80
2021/01/14 11:16:22;;;;;;;4.18;3.55;;;2.90;99.90;;;;;;4986321;28;20281;-83
2021/01/14 11:18:50;;;;;;;9.15;4.65;;;2.90;99.90;;;;;;5003783;28;20568;-81
2021/01/14 11:21:18;;;;;;;6.10;4.60;;;2.90;99.90;;;;;;4990715;28;20183;-81
2021/01/14 11:23:45;;;;;;;7.55;5.63;;;2.90;99.90;;;;;;4974382;28;20183;-82
2021/01/14 11:26:18;;;;;;;9.15;5.38;;;2.90;99.90;;;;;;5001437;28;20305;-83
2021/01/14 11:28:44;;;;;;;7.53;4.47;;;2.80;99.90;;;;;;5003933;28;20170;-80
2021/01/14 11:31:15;;;;;;;6.95;4.55;;;2.90;99.90;;;;;;5006259;28;20175;-80
2021/01/14 11:33:41;;;;;;;7.15;4.82;;;3.00;99.90;;;;;;4970473;28;20178;-81
2021/01/14 11:36:11;;;;;;;7.03;4.82;;;3.20;99.90;;;;;;5003932;28;20203;-80
2021/01/14 11:38:37;;;;;;;7.25;5.18;;;3.40;99.90;;;;;;5003446;28;20217;-80
2021/01/14 11:41:03;;;;;;;7.32;5.20;;;3.50;99.90;;;;;;5008139;28;20526;-82
2021/01/14 11:43:31;;;;;;;10.75;5.43;;;3.60;99.90;;;;;;5011201;28;20237;-82
2021/01/14 11:45:57;;;;;;;8.40;4.68;;;3.70;99.90;;;;;;5001984;28;20195;-80
2021/01/14 11:48:23;;;;;;;6.27;5.10;;;3.50;99.90;;;;;;5003140;28;20178;-79
2021/01/14 11:50:48;;;;;;;7.37;4.60;;;3.50;99.90;;;;;;4986089;28;20535;-81
2021/01/14 11:53:14;;;;;;;9.23;4.90;;;3.30;99.90;;;;;;4986996;28;20197;-81
2021/01/14 11:55:40;;;;;;;8.43;5.23;;;3.40;99.90;;;;;;4987176;28;20287;-81
2021/01/14 11:58:06;;;;;;;8.90;5.33;;;3.60;99.90;;;;;;5004416;28;20183;-82
2021/01/14 12:00:31;;;;;;;9.20;5.63;;;3.40;99.90;;;;;;4989012;28;20422;-81
2021/01/14 12:03:01;;;;;;;7.43;6.10;;;3.30;99.90;;;;;;4989464;28;20190;-80
2021/01/14 12:05:28;;;;;;;10.80;5.70;;;3.20;99.90;;;;;;5007018;28;20195;-80
2021/01/14 12:07:54;;;;;;;8.10;4.35;;;3.20;99.90;;;;;;4977541;28;20216;-81
2021/01/14 12:10:19;;;;;;;8.37;4.83;;;3.20;99.90;;;;;;4980714;28;20206;-79
2021/01/14 12:12:45;;;;;;;9.07;5.47;;;3.30;99.90;;;;;;5013961;28;20250;-81
2021/01/14 12:15:11;;;;;;;7.35;4.60;;;3.30;99.90;;;;;;4999523;28;20286;-82
2021/01/14 12:17:37;;;;;;;9.05;6.60;;;3.40;99.90;;;;;;4987364;28;20193;-80
2021/01/14 12:20:04;;;;;;;6.67;5.03;;;3.40;99.90;;;;;;5008241;28;20175;-80
2021/01/14 12:22:33;;;;;;;6.63;3.95;;;3.50;99.90;;;;;;5011688;28;20504;-81
2021/01/14 12:25:02;;;;;;;6.85;4.60;;;3.50;99.90;;;;;;5001479;28;20256;-80
2021/01/14 12:27:31;;;;;;;11.15;5.22;;;3.50;99.90;;;;;;4987601;28;20170;-79
2021/01/14 12:29:57;;;;;;;10.60;6.45;;;3.20;99.90;;;;;;5001393;28;20179;-78
2021/01/14 12:32:22;;;;;;;9.43;6.00;;;3.20;99.90;;;;;;4985986;28;20290;-82
2021/01/14 12:34:48;;;;;;;7.20;5.10;;;3.30;99.90;;;;;;5000274;28;20197;-81
2021/01/14 12:37:14;;;;;;;12.30;5.73;;;3.50;99.90;;;;;;4998040;28;20201;-81
2021/01/14 12:39:40;;;;;;;12.43;5.50;;;3.60;99.90;;;;;;4971780;28;20179;-81
2021/01/14 12:42:12;;;;;;;11.47;6.77;;;3.70;99.90;;;;;;4951919;28;20218;-80
2021/01/14 12:44:38;;;;;;;11.52;6.13;;;3.70;99.90;;;;;;5004559;28;20289;-80
2021/01/14 12:47:05;;;;;;;10.70;6.20;;;3.80;99.90;;;;;;4984545;28;20555;-81
2021/01/14 12:49:30;;;;;;;9.18;5.55;;;3.60;99.90;;;;;;4985334;28;20262;-79
2021/01/14 12:51:56;;;;;;;9.87;4.77;;;3.60;99.90;;;;;;5004481;28;20571;-81
2021/01/14 12:54:22;;;;;;;8.05;4.72;;;3.60;99.90;;;;;;4987221;28;20586;-80
2021/01/14 12:56:48;;;;;;;11.80;5.30;;;3.40;99.90;;;;;;4986567;28;20178;-80
2021/01/14 12:59:14;;;;;;;9.30;5.35;;;3.40;99.90;;;;;;5006791;28;20201;-81
2021/01/14 13:01:40;;;;;;;6.63;5.30;;;3.60;99.90;;;;;;5009356;28;20218;-81
2021/01/14 13:04:09;;;;;;;16.17;7.23;;;3.80;99.90;;;;;;5011654;28;20430;-80
2021/01/14 13:06:36;;;;;;;10.90;5.57;;;3.80;99.90;;;;;;5009640;28;20213;-80
2021/01/14 13:09:07;;;;;;;10.25;6.88;;;3.70;99.90;;;;;;5003571;28;20199;-80
2021/01/14 13:11:34;;;;;;;11.10;6.13;;;3.60;99.90;;;;;;4988681;28;20185;-79
2021/01/14 13:14:00;;;;;;;12.82;6.75;;;3.60;99.90;;;;;;4986929;28;20178;-80